createdAt,value
2023-02-22T00:01:50.977Z,6.14
2023-02-22T00:04:25.408Z,6.17
2023-02-22T00:07:01.280Z,6.17
2023-02-22T00:09:34.057Z,6.20
2023-02-22T00:12:08.600Z,6.21
2023-02-22T00:14:42.909Z,6.19
2023-02-22T00:17:16.225Z,6.17
2023-02-22T00:19:49.753Z,6.17
2023-02-22T00:22:22.505Z,6.18
2023-02-22T00:24:55.418Z,6.16
2023-02-22T00:27:28.227Z,6.15
2023-02-22T00:30:02.396Z,6.16
2023-02-22T00:32:36.730Z,6.14
2023-02-22T00:35:09.855Z,6.09
2023-02-22T00:37:42.898Z,6.05
2023-02-22T00:40:16.771Z,6.02
2023-02-22T00:42:49.451Z,5.99
2023-02-22T00:45:24.749Z,5.96
2023-02-22T00:47:57.537Z,5.93
2023-02-22T00:50:31.510Z,5.89
2023-02-22T00:53:05.263Z,5.88
2023-02-22T00:55:38.981Z,5.86
2023-02-22T00:58:12.830Z,5.85
2023-02-22T01:00:47.324Z,5.85
2023-02-22T01:03:21.297Z,5.83
2023-02-22T01:05:54.078Z,5.84
2023-02-22T01:08:26.782Z,5.85
2023-02-22T01:10:59.842Z,5.82
2023-02-22T01:13:32.852Z,5.79
2023-02-22T01:16:08.778Z,5.76
2023-02-22T01:18:41.521Z,5.73
2023-02-22T01:21:14.488Z,5.71
2023-02-22T01:23:48.161Z,5.65
2023-02-22T01:26:21.136Z,5.59
2023-02-22T01:28:53.864Z,5.55
2023-02-22T01:31:28.254Z,5.48
2023-02-22T01:34:01.113Z,5.45
2023-02-22T01:36:33.866Z,5.43
2023-02-22T01:39:06.646Z,5.45
2023-02-22T01:41:39.872Z,5.48
2023-02-22T01:44:19.847Z,5.51
2023-02-22T01:46:53.976Z,5.53
2023-02-22T01:49:30.868Z,5.55
2023-02-22T01:52:04.963Z,5.55
2023-02-22T01:54:40.175Z,5.58
2023-02-22T01:57:16.676Z,5.59
2023-02-22T01:59:51.946Z,5.62
2023-02-22T02:02:28.579Z,5.67
2023-02-22T02:05:01.315Z,5.70
2023-02-22T02:07:34.148Z,5.69
2023-02-22T02:10:11.387Z,5.69
2023-02-22T02:12:46.527Z,5.70
2023-02-22T02:15:21.187Z,5.67
2023-02-22T02:17:56.633Z,5.66
2023-02-22T02:20:35.217Z,5.66
2023-02-22T02:23:18.102Z,5.68
2023-02-22T02:26:11.929Z,5.68
2023-02-22T02:28:55.920Z,5.69
2023-02-22T02:31:45.074Z,5.71
2023-02-22T02:34:24.237Z,5.73
2023-02-22T02:37:01.368Z,5.74
2023-02-22T02:39:38.122Z,5.74
2023-02-22T02:42:13.003Z,5.71
2023-02-22T02:44:49.758Z,5.69
2023-02-22T02:47:25.902Z,5.64
2023-02-22T02:50:03.806Z,5.60
2023-02-22T02:52:38.412Z,5.58
2023-02-22T02:55:12.309Z,5.53
2023-02-22T02:57:47.288Z,5.49
2023-02-22T03:00:23.524Z,5.47
2023-02-22T03:03:06.774Z,5.43
2023-02-22T03:05:54.023Z,5.42
2023-02-22T03:08:31.988Z,5.41
2023-02-22T03:11:15.003Z,5.41
2023-02-22T03:13:55.614Z,5.39
2023-02-22T03:16:33.521Z,5.37
2023-02-22T03:19:10.018Z,5.35
2023-02-22T03:21:47.990Z,5.35
2023-02-22T03:24:23.322Z,5.35
2023-02-22T03:27:02.867Z,5.31
2023-02-22T03:29:39.259Z,5.30
2023-02-22T03:32:15.959Z,5.27
2023-02-22T03:34:53.696Z,5.21
2023-02-22T03:37:32.227Z,5.16
2023-02-22T03:40:13.851Z,5.08
2023-02-22T03:42:49.951Z,5.00
2023-02-22T03:45:24.628Z,4.94
2023-02-22T03:48:02.492Z,4.90
2023-02-22T03:50:38.018Z,4.86
2023-02-22T03:53:13.461Z,4.83
2023-02-22T03:55:51.608Z,4.82
2023-02-22T03:58:26.098Z,4.81
2023-02-22T04:00:58.868Z,4.82
2023-02-22T04:03:31.634Z,4.82
2023-02-22T04:06:04.856Z,4.83
2023-02-22T04:08:39.066Z,4.82
2023-02-22T04:11:11.827Z,4.81
2023-02-22T04:13:44.987Z,4.78
2023-02-22T04:16:17.843Z,4.79
2023-02-22T04:18:50.626Z,4.80
2023-02-22T04:21:25.046Z,4.78
2023-02-22T04:23:59.232Z,4.78
2023-02-22T04:26:32.033Z,4.78
2023-02-22T04:29:07.126Z,4.79
2023-02-22T04:31:43.847Z,4.79
2023-02-22T04:34:16.699Z,4.79
2023-02-22T04:36:49.887Z,4.77
2023-02-22T04:39:24.068Z,4.73
2023-02-22T04:41:57.590Z,4.66
2023-02-22T04:44:30.711Z,4.59
2023-02-22T04:47:03.516Z,4.54
2023-02-22T04:49:38.726Z,4.51
2023-02-22T04:52:11.917Z,4.47
2023-02-22T04:54:46.714Z,4.42
2023-02-22T04:57:19.550Z,4.38
2023-02-22T04:59:52.272Z,4.32
2023-02-22T05:02:25.466Z,4.26
2023-02-22T05:04:58.276Z,4.18
2023-02-22T05:07:31.075Z,4.13
2023-02-22T05:10:05.413Z,4.07
2023-02-22T05:12:38.160Z,3.98
2023-02-22T05:15:11.767Z,3.91
2023-02-22T05:17:45.193Z,3.85
2023-02-22T05:20:21.767Z,3.83
2023-02-22T05:22:54.542Z,3.81
2023-02-22T05:25:28.763Z,3.81
2023-02-22T05:28:03.248Z,3.80
2023-02-22T05:30:36.910Z,3.81
2023-02-22T05:33:10.110Z,3.80
2023-02-22T05:35:42.924Z,3.82
2023-02-22T05:38:16.045Z,3.86
2023-02-22T05:40:50.263Z,3.88
2023-02-22T05:43:22.979Z,3.87
2023-02-22T05:45:55.712Z,3.86
2023-02-22T05:48:28.409Z,3.86
2023-02-22T05:51:01.116Z,3.82
2023-02-22T05:53:33.870Z,3.78
2023-02-22T05:56:08.300Z,3.78
2023-02-22T05:58:41.015Z,3.79
2023-02-22T06:01:13.747Z,3.80
2023-02-22T06:03:48.328Z,3.82
2023-02-22T06:06:22.458Z,3.86
2023-02-22T06:08:55.302Z,3.90
2023-02-22T06:11:29.431Z,3.93
2023-02-22T06:14:02.164Z,3.96
2023-02-22T06:16:34.929Z,4.00
2023-02-22T06:19:07.688Z,4.03
2023-02-22T06:21:49.617Z,4.08
2023-02-22T06:24:23.132Z,4.12
2023-02-22T06:26:58.249Z,4.17
2023-02-22T06:29:31.023Z,4.22
2023-02-22T06:32:03.897Z,4.26
2023-02-22T06:34:36.712Z,4.32
2023-02-22T06:37:09.508Z,4.39
2023-02-22T06:39:42.277Z,4.44
2023-02-22T06:42:16.422Z,4.49
2023-02-22T06:44:50.268Z,4.55
2023-02-22T06:47:24.251Z,4.61
2023-02-22T06:49:57.115Z,4.69
2023-02-22T06:52:29.910Z,4.73
2023-02-22T06:55:02.657Z,4.78
2023-02-22T06:57:36.758Z,4.84
2023-02-22T07:00:10.238Z,4.89
2023-02-22T07:02:43.625Z,4.97
2023-02-22T07:05:17.154Z,4.98
2023-02-22T07:07:50.787Z,5.00
2023-02-22T07:10:24.776Z,5.05
2023-02-22T07:12:59.028Z,5.08
2023-02-22T07:15:32.688Z,5.17
2023-02-22T07:18:05.694Z,5.25
2023-02-22T07:20:38.741Z,5.36
2023-02-22T07:23:11.505Z,5.44
2023-02-22T07:25:44.707Z,5.52
2023-02-22T07:28:18.897Z,5.60
2023-02-22T07:30:51.668Z,5.69
2023-02-22T07:33:24.501Z,5.73
2023-02-22T07:35:57.211Z,5.77
2023-02-22T07:38:29.923Z,5.83
2023-02-22T07:41:02.678Z,5.90
2023-02-22T07:43:37.034Z,5.98
2023-02-22T07:46:09.956Z,6.00
2023-02-22T07:48:42.809Z,6.04
2023-02-22T07:51:16.525Z,6.06
2023-02-22T07:53:50.052Z,6.13
2023-02-22T07:56:22.823Z,6.21
2023-02-22T07:58:57.004Z,6.27
2023-02-22T08:01:29.881Z,6.36
2023-02-22T08:04:02.687Z,6.40
2023-02-22T08:06:35.525Z,6.46
2023-02-22T08:09:08.817Z,6.50
2023-02-22T08:11:41.712Z,6.54
2023-02-22T08:14:18.385Z,6.53
2023-02-22T08:16:51.197Z,6.51
2023-02-22T08:19:24.048Z,6.57
2023-02-22T08:21:56.789Z,6.62
2023-02-22T08:24:29.625Z,6.64
2023-02-22T08:27:02.494Z,6.67
2023-02-22T08:29:36.693Z,6.71
2023-02-22T08:32:09.611Z,6.75
2023-02-22T08:34:43.438Z,6.85
2023-02-22T08:37:16.325Z,7.06
2023-02-22T08:39:49.262Z,7.32
2023-02-22T08:42:22.063Z,7.49
2023-02-22T08:44:56.223Z,7.57
2023-02-22T08:47:29.001Z,7.60
2023-02-22T08:50:01.761Z,7.62
2023-02-22T08:52:35.166Z,7.67
2023-02-22T08:55:09.165Z,7.73
2023-02-22T08:57:41.971Z,7.74
2023-02-22T09:00:17.190Z,7.69
2023-02-22T09:02:49.932Z,7.67
2023-02-22T09:05:22.842Z,7.69
2023-02-22T09:07:55.768Z,7.71
2023-02-22T09:10:29.890Z,7.76
2023-02-22T09:13:04.024Z,7.80
2023-02-22T09:15:39.803Z,7.81
2023-02-22T09:18:15.841Z,7.79
2023-02-22T09:20:48.734Z,7.76
2023-02-22T09:23:22.194Z,7.72
2023-02-22T09:25:54.910Z,7.63
2023-02-22T09:28:29.231Z,7.58
2023-02-22T09:31:03.469Z,7.49
2023-02-22T09:33:36.161Z,7.41
2023-02-22T09:36:09.290Z,7.35
2023-02-22T09:38:42.042Z,7.28
2023-02-22T09:41:19.780Z,7.22
2023-02-22T09:43:57.483Z,7.15
2023-02-22T09:46:34.670Z,7.07
2023-02-22T09:49:13.977Z,7.01
2023-02-22T09:51:49.759Z,6.91
2023-02-22T09:54:24.732Z,6.77
2023-02-22T09:56:59.450Z,6.63
2023-02-22T09:59:34.887Z,6.50
2023-02-22T10:02:19.866Z,6.44
2023-02-22T10:04:57.842Z,6.41
2023-02-22T10:07:33.942Z,6.40
2023-02-22T10:10:07.285Z,6.44
2023-02-22T10:12:49.385Z,6.53
2023-02-22T10:15:29.397Z,6.68
2023-02-22T10:18:11.601Z,6.84
2023-02-22T10:20:49.748Z,7.01
2023-02-22T10:23:29.646Z,7.16
2023-02-22T10:26:10.059Z,7.22
2023-02-22T10:28:46.145Z,7.31
2023-02-22T10:31:23.104Z,7.49
2023-02-22T10:33:59.814Z,7.77
2023-02-22T10:36:34.438Z,8.05
2023-02-22T10:39:14.491Z,8.15
2023-02-22T10:41:50.446Z,8.17
2023-02-22T10:44:23.241Z,8.11
2023-02-22T10:46:56.059Z,8.07
2023-02-22T10:49:32.270Z,7.99
2023-02-22T10:52:06.110Z,7.85
2023-02-22T10:54:41.417Z,7.59
2023-02-22T10:57:14.659Z,7.38
2023-02-22T10:59:47.576Z,7.14
2023-02-22T11:02:21.532Z,7.00
2023-02-22T11:04:57.041Z,6.92
2023-02-22T11:07:30.860Z,6.88
2023-02-22T11:10:05.847Z,6.87
2023-02-22T11:12:39.612Z,6.80
2023-02-22T11:15:28.913Z,6.75
2023-02-22T11:18:02.109Z,6.76
2023-02-22T11:20:38.588Z,6.71
2023-02-22T11:23:12.388Z,6.62
2023-02-22T11:25:49.328Z,6.54
2023-02-22T11:28:30.855Z,6.51
2023-02-22T11:31:12.553Z,6.54
2023-02-22T11:33:52.567Z,6.56
2023-02-22T11:36:37.310Z,6.58
2023-02-22T11:39:22.913Z,6.60
2023-02-22T11:41:56.677Z,6.60
2023-02-22T11:44:30.958Z,6.63
2023-02-22T11:47:06.980Z,6.65
2023-02-22T11:49:43.154Z,6.68
2023-02-22T11:52:22.966Z,6.69
2023-02-22T11:55:10.731Z,6.69
2023-02-22T11:57:50.722Z,6.68
2023-02-22T12:00:26.973Z,6.74
2023-02-22T12:03:13.488Z,6.83
2023-02-22T12:06:00.573Z,7.01
2023-02-22T12:08:38.097Z,7.16
2023-02-22T12:11:18.292Z,7.30
2023-02-22T12:13:58.970Z,7.48
2023-02-22T12:16:36.418Z,7.55
2023-02-22T12:19:13.300Z,7.51
2023-02-22T12:21:48.266Z,7.49
2023-02-22T12:24:24.067Z,7.42
2023-02-22T12:26:59.594Z,7.37
2023-02-22T12:29:37.635Z,7.30
2023-02-22T12:32:12.903Z,7.17
2023-02-22T12:34:48.821Z,7.10
2023-02-22T12:37:23.577Z,7.06
2023-02-22T12:40:01.886Z,7.04
2023-02-22T12:42:43.368Z,7.02
2023-02-22T12:45:22.363Z,7.02
2023-02-22T12:47:58.869Z,7.00
2023-02-22T12:50:34.536Z,6.94
2023-02-22T12:53:14.146Z,6.87
2023-02-22T12:55:51.891Z,6.83
2023-02-22T12:58:27.093Z,6.72
2023-02-22T13:01:02.377Z,6.58
2023-02-22T13:03:36.719Z,6.42
2023-02-22T13:06:24.688Z,6.20
2023-02-22T13:09:09.343Z,5.97
2023-02-22T13:11:47.465Z,5.85
2023-02-22T13:14:43.468Z,5.85
2023-02-22T13:17:21.154Z,5.85
2023-02-22T13:19:56.565Z,5.93
2023-02-22T13:22:34.504Z,6.05
2023-02-22T13:25:11.276Z,6.14
2023-02-22T13:27:48.083Z,6.39
2023-02-22T13:30:23.346Z,6.65
2023-02-22T13:33:04.800Z,6.80
2023-02-22T13:35:48.640Z,7.08
2023-02-22T13:38:42.223Z,7.19
2023-02-22T13:41:29.670Z,7.11
2023-02-22T13:44:13.601Z,6.85
2023-02-22T13:47:04.218Z,6.61
2023-02-22T13:49:48.850Z,6.42
2023-02-22T13:52:23.391Z,6.31
2023-02-22T13:54:58.988Z,6.24
2023-02-22T13:57:36.227Z,6.13
2023-02-22T14:00:24.418Z,5.96
2023-02-22T14:02:58.518Z,5.83
2023-02-22T14:05:51.207Z,5.71
2023-02-22T14:08:41.947Z,5.56
2023-02-22T14:11:33.633Z,5.49
2023-02-22T14:14:19.173Z,5.47
2023-02-22T14:17:10.994Z,5.47
2023-02-22T14:20:01.165Z,5.48
2023-02-22T14:22:34.060Z,5.49
2023-02-22T14:25:07.745Z,5.49
2023-02-22T14:27:42.008Z,5.53
2023-02-22T14:30:26.011Z,5.54
2023-02-22T14:33:00.550Z,5.59
2023-02-22T14:35:49.519Z,5.58
2023-02-22T14:38:23.018Z,5.56
2023-02-22T14:40:57.630Z,5.57
2023-02-22T14:43:30.594Z,5.56
2023-02-22T14:46:05.429Z,5.53
2023-02-22T14:48:40.427Z,5.52
2023-02-22T14:51:21.987Z,5.52
2023-02-22T14:53:58.272Z,5.48
2023-02-22T14:56:36.406Z,5.45
2023-02-22T14:59:16.212Z,5.43
2023-02-22T15:02:09.667Z,5.41
2023-02-22T15:04:51.531Z,5.39
2023-02-22T15:07:28.293Z,5.23
2023-02-22T15:10:09.748Z,5.14
2023-02-22T15:12:51.621Z,5.07
2023-02-22T15:15:25.828Z,5.01
2023-02-22T15:17:59.029Z,4.99
2023-02-22T15:20:32.168Z,4.95
2023-02-22T15:23:06.406Z,4.89
2023-02-22T15:25:41.388Z,4.82
2023-02-22T15:28:17.757Z,4.80
2023-02-22T15:30:50.500Z,4.80
2023-02-22T15:33:34.327Z,4.78
2023-02-22T15:36:14.450Z,4.73
2023-02-22T15:38:52.349Z,4.64
2023-02-22T15:41:28.362Z,4.59
2023-02-22T15:44:14.241Z,4.53
2023-02-22T15:46:56.633Z,4.53
2023-02-22T15:49:33.814Z,4.54
2023-02-22T15:52:09.515Z,4.55
2023-02-22T15:54:45.233Z,4.55
2023-02-22T15:57:18.913Z,4.52
2023-02-22T15:59:53.742Z,4.51
2023-02-22T16:02:31.431Z,4.49
2023-02-22T16:05:06.759Z,4.48
2023-02-22T16:07:46.077Z,4.46
2023-02-22T16:10:23.409Z,4.42
2023-02-22T16:13:06.037Z,4.38
2023-02-22T16:15:38.820Z,4.32
2023-02-22T16:18:17.933Z,4.26
2023-02-22T16:20:58.866Z,4.20
2023-02-22T16:23:33.756Z,4.16
2023-02-22T16:26:17.630Z,4.12
2023-02-22T16:28:53.027Z,4.08
2023-02-22T16:31:28.722Z,4.02
2023-02-22T16:34:02.331Z,4.00
2023-02-22T16:36:39.956Z,3.95
2023-02-22T16:39:15.175Z,3.90
2023-02-22T16:41:49.359Z,3.86
2023-02-22T16:44:23.107Z,3.81
2023-02-22T16:46:56.602Z,3.75
2023-02-22T16:49:29.378Z,3.68
2023-02-22T16:52:03.342Z,3.64
2023-02-22T16:54:38.358Z,3.62
2023-02-22T16:57:17.484Z,3.60
2023-02-22T17:00:02.967Z,3.56
2023-02-22T17:02:38.666Z,3.53
2023-02-22T17:05:14.382Z,3.50
2023-02-22T17:07:47.278Z,3.50
2023-02-22T17:10:20.326Z,3.48
2023-02-22T17:12:54.576Z,3.47
2023-02-22T17:15:30.624Z,3.47
2023-02-22T17:18:05.007Z,3.48
2023-02-22T17:20:37.798Z,3.45
2023-02-22T17:23:11.154Z,3.43
2023-02-22T17:25:49.920Z,3.42
2023-02-22T17:28:27.503Z,3.42
2023-02-22T17:31:01.931Z,3.40
2023-02-22T17:33:36.708Z,3.40
2023-02-22T17:36:09.648Z,3.39
2023-02-22T17:38:43.197Z,3.38
2023-02-22T17:41:15.963Z,3.40
2023-02-22T17:43:50.737Z,3.43
2023-02-22T17:46:25.246Z,3.43
2023-02-22T17:48:58.023Z,3.43
2023-02-22T17:51:30.921Z,3.42
2023-02-22T17:54:03.835Z,3.42
2023-02-22T17:56:39.441Z,3.43
2023-02-22T17:59:13.668Z,3.41
2023-02-22T18:01:46.475Z,3.40
2023-02-22T18:04:19.393Z,3.39
2023-02-22T18:06:52.514Z,3.37
2023-02-22T18:09:25.432Z,3.32
2023-02-22T18:11:58.513Z,3.30
2023-02-22T18:14:32.700Z,3.27
2023-02-22T18:17:05.432Z,3.25
2023-02-22T18:19:38.722Z,3.23
2023-02-22T18:22:12.027Z,3.20
2023-02-22T18:24:44.849Z,3.18
2023-02-22T18:27:17.833Z,3.17
2023-02-22T18:29:51.944Z,3.14
2023-02-22T18:32:28.423Z,3.11
2023-02-22T18:35:01.416Z,3.05
2023-02-22T18:37:34.264Z,3.03
2023-02-22T18:40:10.638Z,3.00
2023-02-22T18:42:43.500Z,2.98
2023-02-22T18:45:18.174Z,2.99
2023-02-22T18:47:51.003Z,2.99
2023-02-22T18:50:23.763Z,2.99
2023-02-22T18:52:56.608Z,3.01
2023-02-22T18:55:29.419Z,3.02
2023-02-22T18:58:04.669Z,3.03
2023-02-22T19:00:38.984Z,3.01
2023-02-22T19:03:11.771Z,2.98
2023-02-22T19:05:44.650Z,2.93
2023-02-22T19:08:17.483Z,2.90
2023-02-22T19:10:52.001Z,2.88
2023-02-22T19:13:24.759Z,2.84
2023-02-22T19:16:06.097Z,2.80
2023-02-22T19:18:39.287Z,2.77
2023-02-22T19:21:13.997Z,2.75
2023-02-22T19:23:48.110Z,2.73
2023-02-22T19:26:35.305Z,2.70
2023-02-22T19:29:08.543Z,2.69
2023-02-22T19:31:43.444Z,2.69
2023-02-22T19:34:21.951Z,2.67
2023-02-22T19:37:00.630Z,2.69
2023-02-22T19:39:34.771Z,2.68
2023-02-22T19:42:11.006Z,2.68
2023-02-22T19:44:43.900Z,2.69
2023-02-22T19:47:18.182Z,2.68
2023-02-22T19:49:51.071Z,2.65
2023-02-22T19:52:25.737Z,2.63
2023-02-22T19:55:01.472Z,2.58
2023-02-22T19:57:34.245Z,2.52
2023-02-22T20:00:11.243Z,2.48
2023-02-22T20:02:45.652Z,2.44
2023-02-22T20:05:18.703Z,2.43
2023-02-22T20:07:51.671Z,2.42
2023-02-22T20:10:27.394Z,2.41
2023-02-22T20:13:00.777Z,2.40
2023-02-22T20:15:36.569Z,2.38
2023-02-22T20:18:13.867Z,2.33
2023-02-22T20:20:46.710Z,2.31
2023-02-22T20:23:21.589Z,2.30
2023-02-22T20:25:54.762Z,2.29
2023-02-22T20:28:30.007Z,2.30
2023-02-22T20:31:16.332Z,2.27
2023-02-22T20:33:56.018Z,2.24
2023-02-22T20:36:29.831Z,2.25
2023-02-22T20:39:02.609Z,2.22
2023-02-22T20:41:36.323Z,2.17
2023-02-22T20:44:11.111Z,2.14
2023-02-22T20:46:45.234Z,2.09
2023-02-22T20:49:21.377Z,2.03
2023-02-22T20:51:54.238Z,1.95
2023-02-22T20:54:27.064Z,1.88
2023-02-22T20:56:59.914Z,1.81
2023-02-22T20:59:32.722Z,1.74
2023-02-22T21:02:05.516Z,1.70
2023-02-22T21:04:40.035Z,1.66
2023-02-22T21:07:12.806Z,1.61
2023-02-22T21:09:46.128Z,1.55
2023-02-22T21:12:18.883Z,1.50
2023-02-22T21:14:52.009Z,1.43
2023-02-22T21:17:28.917Z,1.38
2023-02-22T21:20:09.220Z,1.34
2023-02-22T21:22:43.821Z,1.30
2023-02-22T21:25:16.844Z,1.26
2023-02-22T21:27:49.682Z,1.22
2023-02-22T21:30:22.532Z,1.18
2023-02-22T21:32:55.906Z,1.17
2023-02-22T21:35:30.081Z,1.14
2023-02-22T21:38:02.838Z,1.12
2023-02-22T21:40:35.920Z,1.07
2023-02-22T21:43:10.625Z,1.04
2023-02-22T21:45:43.375Z,1.02
2023-02-22T21:48:18.160Z,0.98
2023-02-22T21:50:52.427Z,0.94
2023-02-22T21:53:25.331Z,0.90
2023-02-22T21:56:03.595Z,0.89
2023-02-22T21:58:36.505Z,0.86
2023-02-22T22:01:10.733Z,0.84
2023-02-22T22:03:44.210Z,0.82
2023-02-22T22:06:20.878Z,0.79
2023-02-22T22:08:54.318Z,0.77
2023-02-22T22:11:27.492Z,0.74
2023-02-22T22:14:00.529Z,0.71
2023-02-22T22:16:33.294Z,0.70
2023-02-22T22:19:06.456Z,0.67
2023-02-22T22:21:40.786Z,0.62
2023-02-22T22:24:13.887Z,0.59
2023-02-22T22:26:46.894Z,0.56
2023-02-22T22:29:19.712Z,0.55
2023-02-22T22:31:52.955Z,0.51
2023-02-22T22:34:29.495Z,0.46
2023-02-22T22:37:03.788Z,0.43
2023-02-22T22:39:38.452Z,0.39
2023-02-22T22:42:11.320Z,0.36
2023-02-22T22:44:44.114Z,0.35
2023-02-22T22:47:18.313Z,0.33
2023-02-22T22:49:51.152Z,0.31
2023-02-22T22:52:31.227Z,0.30
2023-02-22T22:55:10.046Z,0.27
2023-02-22T22:57:43.260Z,0.25
2023-02-22T23:00:35.165Z,0.24
2023-02-22T23:03:09.593Z,0.22
2023-02-22T23:05:43.420Z,0.20
2023-02-22T23:08:18.460Z,0.19
2023-02-22T23:10:51.609Z,0.18
2023-02-22T23:13:25.023Z,0.17
2023-02-22T23:15:57.818Z,0.17
2023-02-22T23:18:34.026Z,0.15
2023-02-22T23:21:07.357Z,0.13
2023-02-22T23:23:41.564Z,0.11
2023-02-22T23:26:18.106Z,0.07
2023-02-22T23:28:52.468Z,0.05
2023-02-22T23:31:25.395Z,0.00
2023-02-22T23:33:59.290Z,-0.03
2023-02-22T23:36:31.979Z,-0.07
2023-02-22T23:39:06.546Z,-0.07
2023-02-22T23:41:39.599Z,-0.08
2023-02-22T23:44:17.419Z,-0.09
2023-02-22T23:46:55.290Z,-0.11
2023-02-22T23:49:35.646Z,-0.15
2023-02-22T23:52:09.593Z,-0.19
2023-02-22T23:54:46.866Z,-0.19
2023-02-22T23:57:19.735Z,-0.19
2023-02-22T23:59:52.551Z,-0.21
